sensor_id;sensor_type;location;lat;lon;timestamp;pressure;altitude;pressure_sealevel;temperature;humidity
35878;BME280;21982;49.804;24.072;2023-04-30T00:00:51;96952.16;;;10.21;37.85
35878;BME280;21982;49.804;24.072;2023-04-30T00:03:16;97032.28;;;10.77;37.79
35878;BME280;21982;49.804;24.072;2023-04-30T00:05:41;96979.97;;;10.45;37.68
35878;BME280;21982;49.804;24.072;2023-04-30T00:08:07;96950.19;;;10.29;37.98
35878;BME280;21982;49.804;24.072;2023-04-30T00:10:32;97031.31;;;10.85;37.36
35878;BME280;21982;49.804;24.072;2023-04-30T00:12:59;97036.03;;;10.89;37.39
35878;BME280;21982;49.804;24.072;2023-04-30T00:15:24;96987.19;;;10.57;37.79
35878;BME280;21982;49.804;24.072;2023-04-30T00:17:50;97006.25;;;10.81;37.73
35878;BME280;21982;49.804;24.072;2023-04-30T00:20:15;97032.44;;;11.03;37.36
35878;BME280;21982;49.804;24.072;2023-04-30T00:22:41;97035.09;;;11.10;37.66
35878;BME280;21982;49.804;24.072;2023-04-30T00:27:41;96995.28;;;10.90;37.33
35878;BME280;21982;49.804;24.072;2023-04-30T00:30:07;96943.81;;;10.58;36.75
35878;BME280;21982;49.804;24.072;2023-04-30T00:32:32;97039.00;;;11.14;37.38
35878;BME280;21982;49.804;24.072;2023-04-30T00:34:58;97037.75;;;11.10;37.29
35878;BME280;21982;49.804;24.072;2023-04-30T00:37:23;97031.25;;;11.06;37.27
35878;BME280;21982;49.804;24.072;2023-04-30T00:39:48;97027.16;;;11.03;37.06
35878;BME280;21982;49.804;24.072;2023-04-30T00:42:14;96974.66;;;10.72;37.38
35878;BME280;21982;49.804;24.072;2023-04-30T00:44:39;96947.47;;;10.57;37.15
35878;BME280;21982;49.804;24.072;2023-04-30T00:47:04;97034.28;;;11.09;37.07
35878;BME280;21982;49.804;24.072;2023-04-30T00:49:30;96975.25;;;10.74;37.10
35878;BME280;21982;49.804;24.072;2023-04-30T00:51:55;97032.88;;;11.14;37.09
35878;BME280;21982;49.804;24.072;2023-04-30T00:54:22;96977.31;;;10.79;37.25
35878;BME280;21982;49.804;24.072;2023-04-30T00:56:48;96897.88;;;10.31;37.42
35878;BME280;21982;49.804;24.072;2023-04-30T00:59:14;97037.19;;;11.21;37.07
35878;BME280;21982;49.804;24.072;2023-04-30T01:01:39;97034.34;;;11.23;37.08
35878;BME280;21982;49.804;24.072;2023-04-30T01:04:05;96904.03;;;10.45;37.15
35878;BME280;21982;49.804;24.072;2023-04-30T01:06:31;96970.25;;;10.93;37.17
35878;BME280;21982;49.804;24.072;2023-04-30T01:08:57;97032.34;;;11.31;37.13
35878;BME280;21982;49.804;24.072;2023-04-30T01:14:16;97016.47;;;11.38;37.07
35878;BME280;21982;49.804;24.072;2023-04-30T01:16:50;97023.41;;;11.39;37.22
35878;BME280;21982;49.804;24.072;2023-04-30T01:21:49;96923.75;;;10.84;37.25
35878;BME280;21982;49.804;24.072;2023-04-30T01:29:33;97014.84;;;11.50;36.95
35878;BME280;21982;49.804;24.072;2023-04-30T01:32:00;97012.19;;;11.50;36.90
35878;BME280;21982;49.804;24.072;2023-04-30T01:34:26;96945.44;;;11.07;36.74
35878;BME280;21982;49.804;24.072;2023-04-30T01:37:19;97004.66;;;11.54;37.35
35878;BME280;21982;49.804;24.072;2023-04-30T01:42:35;97017.72;;;11.62;37.07
35878;BME280;21982;49.804;24.072;2023-04-30T01:45:36;97024.06;;;11.61;37.13
35878;BME280;21982;49.804;24.072;2023-04-30T01:50:53;97019.97;;;11.58;37.17
35878;BME280;21982;49.804;24.072;2023-04-30T01:53:32;96980.34;;;11.30;37.14
35878;BME280;21982;49.804;24.072;2023-04-30T01:56:04;97025.06;;;11.60;37.14
35878;BME280;21982;49.804;24.072;2023-04-30T01:58:31;96979.09;;;11.26;37.23
35878;BME280;21982;49.804;24.072;2023-04-30T02:03:27;96853.94;;;10.44;37.19
35878;BME280;21982;49.804;24.072;2023-04-30T02:05:53;96944.34;;;10.88;37.26
35878;BME280;21982;49.804;24.072;2023-04-30T02:08:24;96968.81;;;10.97;37.52
35878;BME280;21982;49.804;24.072;2023-04-30T02:10:51;97011.91;;;11.19;37.71
35878;BME280;21982;49.804;24.072;2023-04-30T02:13:16;97018.81;;;11.13;37.82
35878;BME280;21982;49.804;24.072;2023-04-30T02:15:41;96991.66;;;10.98;37.31
35878;BME280;21982;49.804;24.072;2023-04-30T02:18:10;97019.63;;;11.07;37.68
35878;BME280;21982;49.804;24.072;2023-04-30T02:20:35;96961.41;;;10.79;37.31
35878;BME280;21982;49.804;24.072;2023-04-30T02:23:00;97012.88;;;11.11;37.68
35878;BME280;21982;49.804;24.072;2023-04-30T02:25:26;96965.69;;;10.80;37.36
35878;BME280;21982;49.804;24.072;2023-04-30T02:27:51;97000.06;;;11.08;36.81
35878;BME280;21982;49.804;24.072;2023-04-30T02:30:16;96973.09;;;10.91;37.18
35878;BME280;21982;49.804;24.072;2023-04-30T02:32:43;96923.25;;;10.60;37.36
35878;BME280;21982;49.804;24.072;2023-04-30T02:35:09;96924.03;;;10.54;37.12
35878;BME280;21982;49.804;24.072;2023-04-30T02:37:34;96978.19;;;10.93;37.68
35878;BME280;21982;49.804;24.072;2023-04-30T02:40:00;96957.31;;;10.77;37.94
35878;BME280;21982;49.804;24.072;2023-04-30T02:42:25;96967.13;;;10.83;38.13
35878;BME280;21982;49.804;24.072;2023-04-30T02:44:50;97017.59;;;11.16;37.81
35878;BME280;21982;49.804;24.072;2023-04-30T02:47:16;96965.31;;;10.83;37.64
35878;BME280;21982;49.804;24.072;2023-04-30T02:49:41;96914.69;;;10.58;38.05
35878;BME280;21982;49.804;24.072;2023-04-30T02:52:06;96942.88;;;10.79;38.00
35878;BME280;21982;49.804;24.072;2023-04-30T02:54:33;97014.38;;;11.27;37.97
35878;BME280;21982;49.804;24.072;2023-04-30T02:59:34;96812.44;;;10.03;37.33
35878;BME280;21982;49.804;24.072;2023-04-30T03:01:59;96986.63;;;11.16;37.57
35878;BME280;21982;49.804;24.072;2023-04-30T03:04:26;96965.19;;;11.04;37.32
35878;BME280;21982;49.804;24.072;2023-04-30T03:06:51;96913.75;;;10.72;37.62
35878;BME280;21982;49.804;24.072;2023-04-30T03:09:16;97020.13;;;11.43;37.78
35878;BME280;21982;49.804;24.072;2023-04-30T03:11:43;96944.63;;;11.06;37.62
35878;BME280;21982;49.804;24.072;2023-04-30T03:14:09;96955.63;;;11.17;37.23
35878;BME280;21982;49.804;24.072;2023-04-30T03:16:34;96964.41;;;11.17;36.89
35878;BME280;21982;49.804;24.072;2023-04-30T03:19:00;96905.59;;;10.74;37.20
35878;BME280;21982;49.804;24.072;2023-04-30T03:24:01;97008.34;;;11.59;36.87
35878;BME280;21982;49.804;24.072;2023-04-30T03:26:26;96957.31;;;11.31;36.89
35878;BME280;21982;49.804;24.072;2023-04-30T03:28:52;96963.22;;;11.33;37.08
35878;BME280;21982;49.804;24.072;2023-04-30T03:31:19;97011.81;;;11.66;37.15
35878;BME280;21982;49.804;24.072;2023-04-30T03:33:44;96985.47;;;11.52;37.09
35878;BME280;21982;49.804;24.072;2023-04-30T03:36:09;96997.34;;;11.69;37.04
35878;BME280;21982;49.804;24.072;2023-04-30T03:38:35;97001.84;;;11.82;37.08
35878;BME280;21982;49.804;24.072;2023-04-30T03:41:01;97011.88;;;11.86;36.73
35878;BME280;21982;49.804;24.072;2023-04-30T03:43:26;97008.81;;;11.89;36.67
35878;BME280;21982;49.804;24.072;2023-04-30T03:45:51;96963.66;;;11.63;36.48
35878;BME280;21982;49.804;24.072;2023-04-30T03:48:20;96921.63;;;11.47;36.38
35878;BME280;21982;49.804;24.072;2023-04-30T03:50:45;97017.59;;;12.16;36.49
35878;BME280;21982;49.804;24.072;2023-04-30T03:53:11;97017.19;;;12.26;36.03
35878;BME280;21982;49.804;24.072;2023-04-30T04:00:42;97027.78;;;12.39;35.77
35878;BME280;21982;49.804;24.072;2023-04-30T04:03:10;96810.50;;;11.05;35.67
35878;BME280;21982;49.804;24.072;2023-04-30T04:05:35;96904.72;;;11.74;35.74
35878;BME280;21982;49.804;24.072;2023-04-30T04:08:01;97011.66;;;12.47;35.69
35878;BME280;21982;49.804;24.072;2023-04-30T04:10:27;97036.53;;;12.72;35.72
35878;BME280;21982;49.804;24.072;2023-04-30T04:12:53;96975.66;;;12.51;35.61
35878;BME280;21982;49.804;24.072;2023-04-30T04:15:19;97032.97;;;13.05;35.15
35878;BME280;21982;49.804;24.072;2023-04-30T04:17:44;97020.06;;;13.08;34.94
35878;BME280;21982;49.804;24.072;2023-04-30T04:20:10;97033.91;;;13.30;34.90
35878;BME280;21982;49.804;24.072;2023-04-30T04:22:36;97033.56;;;13.52;34.68
35878;BME280;21982;49.804;24.072;2023-04-30T04:25:01;96922.75;;;13.01;34.65
35878;BME280;21982;49.804;24.072;2023-04-30T04:27:26;97050.75;;;13.87;34.40
35878;BME280;21982;49.804;24.072;2023-04-30T04:29:52;97039.34;;;14.12;33.84
35878;BME280;21982;49.804;24.072;2023-04-30T04:32:19;97011.63;;;14.19;33.77
35878;BME280;21982;49.804;24.072;2023-04-30T04:34:44;97038.97;;;14.58;33.26
35878;BME280;21982;49.804;24.072;2023-04-30T04:37:10;96965.69;;;14.24;33.05
35878;BME280;21982;49.804;24.072;2023-04-30T04:39:35;97023.00;;;14.76;33.02
35878;BME280;21982;49.804;24.072;2023-04-30T04:44:36;97043.31;;;15.62;32.21
35878;BME280;21982;49.804;24.072;2023-04-30T04:47:02;96980.56;;;15.59;31.88
35878;BME280;21982;49.804;24.072;2023-04-30T04:49:30;96975.19;;;15.89;31.33
35878;BME280;21982;49.804;24.072;2023-04-30T04:51:55;97015.66;;;16.51;30.99
35878;BME280;21982;49.804;24.072;2023-04-30T04:54:20;97057.50;;;17.04;30.70
35878;BME280;21982;49.804;24.072;2023-04-30T04:56:46;97049.69;;;17.14;30.42
35878;BME280;21982;49.804;24.072;2023-04-30T04:59:12;96943.84;;;16.43;30.42
35878;BME280;21982;49.804;24.072;2023-04-30T05:01:37;97054.72;;;16.99;30.67
35878;BME280;21982;49.804;24.072;2023-04-30T05:04:03;97054.50;;;16.77;30.66
35878;BME280;21982;49.804;24.072;2023-04-30T05:06:29;97017.75;;;16.49;30.97
35878;BME280;21982;49.804;24.072;2023-04-30T05:08:55;97033.06;;;17.00;30.64
35878;BME280;21982;49.804;24.072;2023-04-30T05:11:21;97052.19;;;17.84;30.17
35878;BME280;21982;49.804;24.072;2023-04-30T05:13:47;97062.41;;;18.83;29.37
35878;BME280;21982;49.804;24.072;2023-04-30T05:16:12;96980.31;;;19.03;28.21
35878;BME280;21982;49.804;24.072;2023-04-30T05:18:37;97057.09;;;20.51;27.94
35878;BME280;21982;49.804;24.072;2023-04-30T05:21:03;97056.03;;;21.36;26.52
35878;BME280;21982;49.804;24.072;2023-04-30T05:23:28;97028.97;;;21.73;26.09
35878;BME280;21982;49.804;24.072;2023-04-30T05:25:54;97015.84;;;22.32;25.58
35878;BME280;21982;49.804;24.072;2023-04-30T05:28:19;97021.50;;;22.77;25.07
35878;BME280;21982;49.804;24.072;2023-04-30T05:30:46;97062.16;;;23.26;25.12
35878;BME280;21982;49.804;24.072;2023-04-30T05:33:11;97050.53;;;23.35;24.91
35878;BME280;21982;49.804;24.072;2023-04-30T05:35:37;97039.66;;;23.51;24.53
35878;BME280;21982;49.804;24.072;2023-04-30T05:40:38;96987.22;;;23.57;24.07
35878;BME280;21982;49.804;24.072;2023-04-30T05:43:06;97002.34;;;24.02;23.63
35878;BME280;21982;49.804;24.072;2023-04-30T05:45:34;97063.25;;;24.72;23.36
35878;BME280;21982;49.804;24.072;2023-04-30T05:47:59;96996.84;;;24.51;23.19
35878;BME280;21982;49.804;24.072;2023-04-30T05:50:26;97013.47;;;24.68;22.78
35878;BME280;21982;49.804;24.072;2023-04-30T05:52:51;97078.94;;;25.33;22.54
35878;BME280;21982;49.804;24.072;2023-04-30T05:55:16;97033.78;;;25.48;21.94
35878;BME280;21982;49.804;24.072;2023-04-30T05:57:43;97040.50;;;25.74;21.78
35878;BME280;21982;49.804;24.072;2023-04-30T06:00:09;97082.34;;;26.29;21.67
35878;BME280;21982;49.804;24.072;2023-04-30T06:02:34;97024.03;;;26.08;21.19
35878;BME280;21982;49.804;24.072;2023-04-30T06:05:00;97086.59;;;26.17;21.17
35878;BME280;21982;49.804;24.072;2023-04-30T06:07:28;97084.69;;;26.36;20.86
35878;BME280;21982;49.804;24.072;2023-04-30T06:09:55;97072.38;;;26.25;20.39
35878;BME280;21982;49.804;24.072;2023-04-30T06:12:20;97031.66;;;26.06;20.72
35878;BME280;21982;49.804;24.072;2023-04-30T06:14:46;97095.91;;;26.29;20.93
35878;BME280;21982;49.804;24.072;2023-04-30T06:17:14;97084.03;;;26.44;20.83
35878;BME280;21982;49.804;24.072;2023-04-30T06:19:40;97059.59;;;26.44;20.66
35878;BME280;21982;49.804;24.072;2023-04-30T06:22:06;97058.94;;;26.52;20.71
35878;BME280;21982;49.804;24.072;2023-04-30T06:24:31;97069.06;;;26.79;20.31
35878;BME280;21982;49.804;24.072;2023-04-30T06:26:57;97085.06;;;26.81;20.85
35878;BME280;21982;49.804;24.072;2023-04-30T06:29:22;97051.75;;;26.75;20.37
35878;BME280;21982;49.804;24.072;2023-04-30T06:31:49;97070.53;;;27.36;19.98
35878;BME280;21982;49.804;24.072;2023-04-30T06:34:15;97060.25;;;27.75;19.96
35878;BME280;21982;49.804;24.072;2023-04-30T06:36:40;97037.88;;;27.78;19.05
35878;BME280;21982;49.804;24.072;2023-04-30T06:39:06;97067.28;;;27.89;18.81
35878;BME280;21982;49.804;24.072;2023-04-30T06:46:42;96992.66;;;27.68;18.38
35878;BME280;21982;49.804;24.072;2023-04-30T06:49:07;97082.03;;;28.38;18.51
35878;BME280;21982;49.804;24.072;2023-04-30T06:51:32;97086.63;;;28.96;18.50
35878;BME280;21982;49.804;24.072;2023-04-30T06:53:58;97084.06;;;29.30;18.13
35878;BME280;21982;49.804;24.072;2023-04-30T06:58:58;96773.81;;;27.83;17.76
35878;BME280;21982;49.804;24.072;2023-04-30T07:01:24;97014.84;;;29.49;17.99
35878;BME280;21982;49.804;24.072;2023-04-30T07:03:49;96932.22;;;28.69;18.45
35878;BME280;21982;49.804;24.072;2023-04-30T07:06:16;97087.66;;;29.40;18.34
35878;BME280;21982;49.804;24.072;2023-04-30T07:08:42;97064.75;;;29.41;17.97
35878;BME280;21982;49.804;24.072;2023-04-30T07:11:08;97084.44;;;29.77;17.87
35878;BME280;21982;49.804;24.072;2023-04-30T07:13:34;97098.75;;;29.91;17.56
35878;BME280;21982;49.804;24.072;2023-04-30T07:15:59;97066.38;;;30.16;17.05
35878;BME280;21982;49.804;24.072;2023-04-30T07:18:25;97070.09;;;30.46;17.10
35878;BME280;21982;49.804;24.072;2023-04-30T07:20:50;97105.09;;;31.04;16.75
35878;BME280;21982;49.804;24.072;2023-04-30T07:23:16;97095.94;;;31.55;16.28
35878;BME280;21982;49.804;24.072;2023-04-30T07:25:41;97055.56;;;30.97;16.44
35878;BME280;21982;49.804;24.072;2023-04-30T07:28:07;97078.56;;;31.13;16.13
35878;BME280;21982;49.804;24.072;2023-04-30T07:30:33;97094.31;;;31.54;15.93
35878;BME280;21982;49.804;24.072;2023-04-30T07:32:58;97088.16;;;31.75;15.76
35878;BME280;21982;49.804;24.072;2023-04-30T07:35:24;97023.91;;;31.72;15.80
35878;BME280;21982;49.804;24.072;2023-04-30T07:37:49;97094.00;;;32.23;15.60
35878;BME280;21982;49.804;24.072;2023-04-30T07:40:15;97078.72;;;31.55;15.67
35878;BME280;21982;49.804;24.072;2023-04-30T07:42:40;97090.34;;;31.52;16.05
35878;BME280;21982;49.804;24.072;2023-04-30T07:45:09;97053.69;;;31.74;15.64
35878;BME280;21982;49.804;24.072;2023-04-30T07:47:35;97069.53;;;32.18;15.59
35878;BME280;21982;49.804;24.072;2023-04-30T07:50:01;97095.16;;;32.43;14.81
35878;BME280;21982;49.804;24.072;2023-04-30T07:52:26;97087.56;;;32.19;15.46
35878;BME280;21982;49.804;24.072;2023-04-30T07:54:51;97067.28;;;32.41;15.05
35878;BME280;21982;49.804;24.072;2023-04-30T07:57:17;97059.03;;;32.83;15.18
35878;BME280;21982;49.804;24.072;2023-04-30T07:59:42;97079.59;;;33.34;14.39
35878;BME280;21982;49.804;24.072;2023-04-30T08:02:08;97087.03;;;33.34;14.69
35878;BME280;21982;49.804;24.072;2023-04-30T08:04:34;97089.31;;;33.32;14.12
35878;BME280;21982;49.804;24.072;2023-04-30T08:06:59;97079.28;;;33.36;14.36
35878;BME280;21982;49.804;24.072;2023-04-30T08:09:26;97088.44;;;33.76;14.36
35878;BME280;21982;49.804;24.072;2023-04-30T08:11:51;97086.78;;;33.26;14.61
35878;BME280;21982;49.804;24.072;2023-04-30T08:14:17;97081.69;;;33.04;14.29
35878;BME280;21982;49.804;24.072;2023-04-30T08:16:43;97082.22;;;32.64;14.45
35878;BME280;21982;49.804;24.072;2023-04-30T08:19:08;97092.06;;;32.45;14.69
35878;BME280;21982;49.804;24.072;2023-04-30T08:21:34;97063.75;;;32.74;14.60
35878;BME280;21982;49.804;24.072;2023-04-30T08:24:00;97066.88;;;33.17;14.46
35878;BME280;21982;49.804;24.072;2023-04-30T08:26:25;97051.78;;;33.11;14.61
35878;BME280;21982;49.804;24.072;2023-04-30T08:28:51;97081.69;;;33.04;14.36
35878;BME280;21982;49.804;24.072;2023-04-30T08:31:16;97081.91;;;32.99;14.91
35878;BME280;21982;49.804;24.072;2023-04-30T08:33:42;97087.66;;;33.51;14.51
35878;BME280;21982;49.804;24.072;2023-04-30T08:36:07;97067.78;;;33.91;14.41
35878;BME280;21982;49.804;24.072;2023-04-30T08:38:34;97089.28;;;34.53;13.47
35878;BME280;21982;49.804;24.072;2023-04-30T08:41:08;97093.72;;;34.98;13.44
35878;BME280;21982;49.804;24.072;2023-04-30T08:43:34;97044.84;;;34.51;13.47
35878;BME280;21982;49.804;24.072;2023-04-30T08:45:59;97086.09;;;34.91;13.37
35878;BME280;21982;49.804;24.072;2023-04-30T08:48:26;97084.28;;;34.71;13.34
35878;BME280;21982;49.804;24.072;2023-04-30T08:50:52;97049.19;;;34.52;13.50
35878;BME280;21982;49.804;24.072;2023-04-30T08:53:18;97064.19;;;34.55;13.49
35878;BME280;21982;49.804;24.072;2023-04-30T08:55:46;97031.50;;;33.85;13.77
35878;BME280;21982;49.804;24.072;2023-04-30T08:58:11;97066.00;;;33.62;14.06
35878;BME280;21982;49.804;24.072;2023-04-30T09:00:37;97080.56;;;33.75;14.01
35878;BME280;21982;49.804;24.072;2023-04-30T09:03:06;97091.53;;;33.75;14.29
35878;BME280;21982;49.804;24.072;2023-04-30T09:05:32;97087.53;;;33.96;13.92
35878;BME280;21982;49.804;24.072;2023-04-30T09:07:58;97051.13;;;34.12;13.92
35878;BME280;21982;49.804;24.072;2023-04-30T09:10:25;97029.59;;;34.14;13.78
35878;BME280;21982;49.804;24.072;2023-04-30T09:13:04;97082.16;;;34.00;13.66
35878;BME280;21982;49.804;24.072;2023-04-30T09:15:30;97088.56;;;33.68;14.35
35878;BME280;21982;49.804;24.072;2023-04-30T09:18:16;97090.28;;;34.09;13.83
35878;BME280;21982;49.804;24.072;2023-04-30T09:20:58;97087.31;;;34.14;14.23
35878;BME280;21982;49.804;24.072;2023-04-30T09:23:25;97051.19;;;32.73;14.17
35878;BME280;21982;49.804;24.072;2023-04-30T09:25:50;97083.13;;;32.56;14.65
35878;BME280;21982;49.804;24.072;2023-04-30T09:28:16;97079.13;;;32.66;14.70
35878;BME280;21982;49.804;24.072;2023-04-30T09:30:41;97083.09;;;33.10;14.78
35878;BME280;21982;49.804;24.072;2023-04-30T09:33:07;97077.38;;;33.15;14.27
35878;BME280;21982;49.804;24.072;2023-04-30T09:35:35;97046.09;;;33.28;14.40
35878;BME280;21982;49.804;24.072;2023-04-30T09:38:01;97046.81;;;33.50;14.02
35878;BME280;21982;49.804;24.072;2023-04-30T09:40:40;97083.19;;;34.08;13.97
35878;BME280;21982;49.804;24.072;2023-04-30T09:43:07;97084.59;;;34.54;14.04
35878;BME280;21982;49.804;24.072;2023-04-30T09:48:11;97077.91;;;34.27;13.87
35878;BME280;21982;49.804;24.072;2023-04-30T09:50:40;97005.69;;;32.72;13.84
35878;BME280;21982;49.804;24.072;2023-04-30T09:53:07;97070.81;;;32.42;14.20
35878;BME280;21982;49.804;24.072;2023-04-30T09:55:34;97076.44;;;31.57;15.20
35878;BME280;21982;49.804;24.072;2023-04-30T09:58:05;97045.00;;;30.70;15.49
35878;BME280;21982;49.804;24.072;2023-04-30T10:00:35;97063.13;;;29.96;16.12
35878;BME280;21982;49.804;24.072;2023-04-30T10:03:16;97063.94;;;29.49;16.32
35878;BME280;21982;49.804;24.072;2023-04-30T10:05:43;97079.69;;;28.67;16.59
35878;BME280;21982;49.804;24.072;2023-04-30T10:10:44;96989.53;;;27.06;17.90
35878;BME280;21982;49.804;24.072;2023-04-30T10:13:17;97061.78;;;26.93;18.21
35878;BME280;21982;49.804;24.072;2023-04-30T10:15:48;97071.41;;;26.53;18.45
35878;BME280;21982;49.804;24.072;2023-04-30T10:18:18;97062.97;;;26.36;18.49
35878;BME280;21982;49.804;24.072;2023-04-30T10:20:46;97049.41;;;26.68;18.53
35878;BME280;21982;49.804;24.072;2023-04-30T10:23:13;97035.59;;;26.84;18.31
35878;BME280;21982;49.804;24.072;2023-04-30T10:25:38;97045.44;;;26.80;18.58
35878;BME280;21982;49.804;24.072;2023-04-30T10:28:07;97053.16;;;26.40;18.80
35878;BME280;21982;49.804;24.072;2023-04-30T10:30:34;97006.34;;;25.73;19.10
35878;BME280;21982;49.804;24.072;2023-04-30T10:33:12;97064.78;;;25.84;19.32
35878;BME280;21982;49.804;24.072;2023-04-30T10:36:02;97024.38;;;25.40;19.57
35878;BME280;21982;49.804;24.072;2023-04-30T10:38:30;97065.53;;;25.90;19.43
35878;BME280;21982;49.804;24.072;2023-04-30T10:40:58;97014.53;;;26.62;19.02
35878;BME280;21982;49.804;24.072;2023-04-30T10:43:24;97073.34;;;27.73;18.78
35878;BME280;21982;49.804;24.072;2023-04-30T10:45:50;97034.72;;;28.34;18.18
35878;BME280;21982;49.804;24.072;2023-04-30T10:48:15;97060.03;;;29.01;18.10
35878;BME280;21982;49.804;24.072;2023-04-30T10:50:50;97051.88;;;29.98;17.70
35878;BME280;21982;49.804;24.072;2023-04-30T10:53:18;97043.81;;;30.96;17.09
35878;BME280;21982;49.804;24.072;2023-04-30T10:56:00;97059.50;;;31.25;16.50
35878;BME280;21982;49.804;24.072;2023-04-30T10:58:36;97050.16;;;30.37;16.95
35878;BME280;21982;49.804;24.072;2023-04-30T11:01:11;97053.13;;;29.92;17.35
35878;BME280;21982;49.804;24.072;2023-04-30T11:03:40;97042.53;;;29.90;17.25
35878;BME280;21982;49.804;24.072;2023-04-30T11:06:11;97052.91;;;31.26;16.72
35878;BME280;21982;49.804;24.072;2023-04-30T11:08:38;97033.84;;;32.27;16.32
35878;BME280;21982;49.804;24.072;2023-04-30T11:11:07;97044.28;;;33.45;15.46
35878;BME280;21982;49.804;24.072;2023-04-30T11:16:06;97047.69;;;33.29;15.15
35878;BME280;21982;49.804;24.072;2023-04-30T11:18:32;97049.72;;;32.75;15.71
35878;BME280;21982;49.804;24.072;2023-04-30T11:20:57;97031.31;;;31.33;16.32
35878;BME280;21982;49.804;24.072;2023-04-30T11:23:24;97036.81;;;30.00;17.01
35878;BME280;21982;49.804;24.072;2023-04-30T11:25:53;97029.72;;;29.03;17.49
35878;BME280;21982;49.804;24.072;2023-04-30T11:28:24;97001.25;;;29.66;17.51
35878;BME280;21982;49.804;24.072;2023-04-30T11:30:58;97035.75;;;31.17;16.95
35878;BME280;21982;49.804;24.072;2023-04-30T11:33:24;97037.19;;;32.12;17.45
35878;BME280;21982;49.804;24.072;2023-04-30T11:35:52;96999.19;;;33.21;15.61
35878;BME280;21982;49.804;24.072;2023-04-30T11:38:25;97022.75;;;33.22;15.06
35878;BME280;21982;49.804;24.072;2023-04-30T11:40:50;96963.22;;;31.41;16.09
35878;BME280;21982;49.804;24.072;2023-04-30T11:43:27;96997.28;;;30.41;16.46
35878;BME280;21982;49.804;24.072;2023-04-30T11:46:07;97043.41;;;29.99;16.96
35878;BME280;21982;49.804;24.072;2023-04-30T11:48:38;97044.31;;;29.78;17.10
35878;BME280;21982;49.804;24.072;2023-04-30T11:51:14;97038.06;;;29.38;17.58
35878;BME280;21982;49.804;24.072;2023-04-30T11:53:40;97020.22;;;29.88;17.52
35878;BME280;21982;49.804;24.072;2023-04-30T11:56:06;97008.84;;;30.38;17.00
35878;BME280;21982;49.804;24.072;2023-04-30T11:58:35;97040.59;;;29.82;16.91
35878;BME280;21982;49.804;24.072;2023-04-30T12:01:06;97038.56;;;29.40;17.31
35878;BME280;21982;49.804;24.072;2023-04-30T12:03:43;97022.28;;;28.64;17.78
35878;BME280;21982;49.804;24.072;2023-04-30T12:06:20;97024.06;;;28.24;18.08
35878;BME280;21982;49.804;24.072;2023-04-30T12:08:46;97030.00;;;27.76;18.41
35878;BME280;21982;49.804;24.072;2023-04-30T12:11:22;96994.91;;;26.79;19.01
35878;BME280;21982;49.804;24.072;2023-04-30T12:14:06;96999.53;;;26.13;19.56
35878;BME280;21982;49.804;24.072;2023-04-30T12:16:52;96996.47;;;25.39;20.03
35878;BME280;21982;49.804;24.072;2023-04-30T12:19:20;97024.53;;;25.01;20.55
35878;BME280;21982;49.804;24.072;2023-04-30T12:21:47;96998.50;;;24.47;21.05
35878;BME280;21982;49.804;24.072;2023-04-30T12:26:48;97032.47;;;23.90;22.12
35878;BME280;21982;49.804;24.072;2023-04-30T12:29:17;97031.47;;;23.71;22.23
35878;BME280;21982;49.804;24.072;2023-04-30T12:31:44;97022.34;;;23.57;22.07
35878;BME280;21982;49.804;24.072;2023-04-30T12:34:12;96985.16;;;23.28;22.59
35878;BME280;21982;49.804;24.072;2023-04-30T12:36:39;97001.91;;;23.25;22.76
35878;BME280;21982;49.804;24.072;2023-04-30T12:39:13;97012.72;;;23.25;22.60
35878;BME280;21982;49.804;24.072;2023-04-30T12:41:48;97009.00;;;23.16;22.81
35878;BME280;21982;49.804;24.072;2023-04-30T12:44:22;96965.34;;;22.68;23.04
35878;BME280;21982;49.804;24.072;2023-04-30T12:46:50;97004.22;;;22.72;23.37
35878;BME280;21982;49.804;24.072;2023-04-30T12:49:28;96917.44;;;22.10;23.37
35878;BME280;21982;49.804;24.072;2023-04-30T12:52:01;96987.53;;;22.45;23.71
35878;BME280;21982;49.804;24.072;2023-04-30T12:56:57;97003.72;;;22.40;23.84
35878;BME280;21982;49.804;24.072;2023-04-30T12:59:25;96864.03;;;21.46;23.93
35878;BME280;21982;49.804;24.072;2023-04-30T13:01:50;96822.78;;;21.30;23.83
35878;BME280;21982;49.804;24.072;2023-04-30T13:04:16;96953.56;;;22.09;24.02
35878;BME280;21982;49.804;24.072;2023-04-30T13:06:42;97001.56;;;22.37;24.18
35878;BME280;21982;49.804;24.072;2023-04-30T13:09:08;96998.59;;;22.38;24.22
35878;BME280;21982;49.804;24.072;2023-04-30T13:11:34;96995.63;;;22.30;24.38
35878;BME280;21982;49.804;24.072;2023-04-30T13:14:00;96985.38;;;22.17;24.51
35878;BME280;21982;49.804;24.072;2023-04-30T13:16:25;96944.94;;;22.06;24.56
35878;BME280;21982;49.804;24.072;2023-04-30T13:18:50;96995.91;;;22.44;24.65
35878;BME280;21982;49.804;24.072;2023-04-30T13:21:16;97001.56;;;22.32;24.61
35878;BME280;21982;49.804;24.072;2023-04-30T13:23:41;96984.25;;;21.92;25.06
35878;BME280;21982;49.804;24.072;2023-04-30T13:26:06;97004.19;;;21.76;25.19
35878;BME280;21982;49.804;24.072;2023-04-30T13:28:32;96999.81;;;21.55;25.55
35878;BME280;21982;49.804;24.072;2023-04-30T13:30:57;97007.31;;;21.43;25.61
35878;BME280;21982;49.804;24.072;2023-04-30T13:33:22;96838.78;;;20.22;26.07
35878;BME280;21982;49.804;24.072;2023-04-30T13:35:49;96997.47;;;21.16;26.10
35878;BME280;21982;49.804;24.072;2023-04-30T13:38:14;96957.47;;;20.78;26.68
35878;BME280;21982;49.804;24.072;2023-04-30T13:40:40;97012.94;;;20.89;28.18
35878;BME280;21982;49.804;24.072;2023-04-30T13:43:05;96970.63;;;20.37;30.55
35878;BME280;21982;49.804;24.072;2023-04-30T13:45:32;97003.94;;;20.31;31.94
35878;BME280;21982;49.804;24.072;2023-04-30T13:47:57;97025.56;;;20.14;33.54